createdAt,value
2017-04-23T00:00:48.010Z,67.40
2017-04-23T00:01:48.017Z,67.60
2017-04-23T00:02:48.068Z,67.10
2017-04-23T00:03:48.501Z,67.10
2017-04-23T00:04:49.366Z,67.20
2017-04-23T00:05:49.421Z,67.00
2017-04-23T00:06:50.191Z,67.00
2017-04-23T00:07:50.394Z,67.20
2017-04-23T00:08:50.769Z,67.20
2017-04-23T00:09:51.568Z,66.70
2017-04-23T00:10:51.599Z,67.20
2017-04-23T00:11:51.618Z,67.20
2017-04-23T00:12:52.339Z,67.40
2017-04-23T00:13:52.856Z,67.20
2017-04-23T00:14:52.959Z,67.30
2017-04-23T00:15:53.090Z,67.20
2017-04-23T00:16:53.173Z,67.30
2017-04-23T00:17:53.194Z,67.40
2017-04-23T00:18:53.496Z,67.40
2017-04-23T00:19:53.512Z,66.80
2017-04-23T00:20:54.327Z,66.90
2017-04-23T00:21:54.361Z,66.80
2017-04-23T00:22:54.419Z,66.70
2017-04-23T00:23:54.776Z,66.60
2017-04-23T00:24:55.661Z,66.70
2017-04-23T00:25:55.706Z,66.40
2017-04-23T00:26:56.460Z,66.50
2017-04-23T00:27:56.539Z,66.40
2017-04-23T00:28:57.679Z,67.20
2017-04-23T00:29:58.449Z,66.60
2017-04-23T00:30:58.496Z,67.00
2017-04-23T00:31:59.871Z,67.10
2017-04-23T00:32:59.937Z,67.20
2017-04-23T00:34:01.079Z,67.50
2017-04-23T00:35:01.806Z,67.20
2017-04-23T00:36:02.569Z,67.10
2017-04-23T00:37:02.640Z,66.90
2017-04-23T00:38:02.668Z,66.70
2017-04-23T00:39:03.043Z,66.70
2017-04-23T00:40:09.771Z,66.80
2017-04-23T00:41:09.798Z,66.90
2017-04-23T00:42:09.778Z,67.20
2017-04-23T00:43:09.802Z,67.40
2017-04-23T00:44:10.167Z,67.30
2017-04-23T00:45:10.160Z,67.20
2017-04-23T00:46:10.925Z,67.40
2017-04-23T00:47:10.988Z,67.40
2017-04-23T00:48:11.055Z,67.50
2017-04-23T00:49:11.527Z,67.60
2017-04-23T00:50:12.465Z,67.50
2017-04-23T00:51:12.501Z,67.20
2017-04-23T00:52:12.547Z,67.30
2017-04-23T00:53:12.761Z,67.30
2017-04-23T00:54:13.293Z,67.40
2017-04-23T00:55:14.059Z,67.60
2017-04-23T00:56:14.171Z,67.30
2017-04-23T00:57:14.251Z,67.10
2017-04-23T00:58:14.257Z,67.10
2017-04-23T00:59:14.603Z,67.40
2017-04-23T01:00:14.653Z,67.30
2017-04-23T01:01:15.461Z,68.10
2017-04-23T01:02:15.472Z,67.30
2017-04-23T01:03:15.490Z,67.00
2017-04-23T01:04:16.673Z,67.10
2017-04-23T01:05:16.721Z,67.10
2017-04-23T01:06:16.905Z,67.30
2017-04-23T01:07:17.023Z,67.30
2017-04-23T01:08:17.117Z,67.20
2017-04-23T01:09:17.602Z,67.20
2017-04-23T01:10:17.902Z,67.20
2017-04-23T01:11:18.693Z,67.40
2017-04-23T01:12:18.712Z,67.50
2017-04-23T01:13:18.755Z,67.60
2017-04-23T01:14:19.272Z,67.60
2017-04-23T01:15:19.333Z,67.50
2017-04-23T01:16:19.399Z,67.10
2017-04-23T01:17:19.463Z,67.20
2017-04-23T01:18:19.616Z,67.90
2017-04-23T01:19:19.890Z,66.90
2017-04-23T01:20:19.908Z,66.70
2017-04-23T01:21:20.662Z,66.80
2017-04-23T01:22:21.491Z,66.90
2017-04-23T01:23:21.738Z,66.80
2017-04-23T01:24:22.074Z,66.50
2017-04-23T01:25:22.094Z,66.50
2017-04-23T01:26:22.084Z,66.20
2017-04-23T01:27:22.157Z,66.00
2017-04-23T01:28:22.332Z,66.30
2017-04-23T01:29:22.726Z,66.20
2017-04-23T01:30:23.534Z,66.20
2017-04-23T01:31:23.741Z,65.80
2017-04-23T01:32:23.718Z,66.00
2017-04-23T01:33:23.712Z,66.10
2017-04-23T01:34:24.034Z,65.50
2017-04-23T01:35:24.072Z,65.80
2017-04-23T01:36:24.146Z,66.00
2017-04-23T01:37:24.177Z,65.80
2017-04-23T01:38:24.242Z,66.20
2017-04-23T01:39:24.561Z,66.10
2017-04-23T01:40:24.639Z,66.00
2017-04-23T01:41:24.621Z,65.70
2017-04-23T01:42:24.634Z,65.90
2017-04-23T01:43:24.639Z,65.90
2017-04-23T01:44:24.999Z,65.60
2017-04-23T01:45:25.060Z,65.70
2017-04-23T01:46:25.192Z,65.40
2017-04-23T01:47:25.975Z,65.30
2017-04-23T01:48:26.006Z,65.40
2017-04-23T01:49:26.431Z,65.80
2017-04-23T01:50:27.211Z,65.50
2017-04-23T01:51:27.286Z,65.60
2017-04-23T01:52:27.286Z,65.90
2017-04-23T01:53:27.314Z,66.20
2017-04-23T01:54:27.628Z,65.90
2017-04-23T01:55:27.668Z,66.30
2017-04-23T01:56:27.705Z,66.30
2017-04-23T01:57:27.786Z,66.20
2017-04-23T01:58:27.827Z,66.00
2017-04-23T01:59:28.170Z,65.90
2017-04-23T02:00:28.168Z,66.10
2017-04-23T02:01:28.272Z,66.30
2017-04-23T02:02:28.481Z,66.50
2017-04-23T02:03:28.635Z,65.80
2017-04-23T02:04:29.091Z,66.10
2017-04-23T02:05:29.890Z,66.10
2017-04-23T02:06:29.934Z,65.80
2017-04-23T02:07:30.731Z,65.80
2017-04-23T02:08:30.776Z,65.40
2017-04-23T02:09:31.157Z,65.80
2017-04-23T02:10:31.166Z,66.00
2017-04-23T02:11:31.186Z,65.80
2017-04-23T02:12:32.002Z,65.90
2017-04-23T02:13:32.048Z,65.60
2017-04-23T02:14:32.435Z,65.80
2017-04-23T02:15:32.571Z,66.20
2017-04-23T02:16:32.570Z,66.40
2017-04-23T02:17:32.571Z,66.70
2017-04-23T02:18:33.419Z,66.70
2017-04-23T02:19:33.894Z,66.90
2017-04-23T02:20:34.064Z,66.50
2017-04-23T02:21:34.101Z,66.50
2017-04-23T02:22:34.180Z,66.60
2017-04-23T02:23:34.207Z,66.40
2017-04-23T02:24:34.543Z,66.30
2017-04-23T02:25:35.301Z,66.30
2017-04-23T02:26:35.311Z,66.20
2017-04-23T02:27:35.349Z,66.10
2017-04-23T02:28:35.349Z,66.10
2017-04-23T02:29:35.794Z,65.80
2017-04-23T02:30:35.980Z,66.00
2017-04-23T02:31:36.306Z,66.30
2017-04-23T02:32:36.398Z,66.30
2017-04-23T02:33:36.493Z,66.10
2017-04-23T02:34:36.967Z,66.10
2017-04-23T02:35:37.002Z,65.90
2017-04-23T02:36:37.023Z,66.80
2017-04-23T02:37:37.138Z,66.00
2017-04-23T02:38:37.175Z,65.60
2017-04-23T02:39:37.494Z,65.10
2017-04-23T02:40:37.565Z,64.90
2017-04-23T02:41:37.565Z,65.10
2017-04-23T02:42:37.661Z,64.80
2017-04-23T02:43:37.689Z,64.40
2017-04-23T02:44:38.083Z,64.80
2017-04-23T02:45:38.077Z,64.70
2017-04-23T02:46:38.085Z,65.90
2017-04-23T02:47:38.101Z,65.50
2017-04-23T02:48:38.134Z,65.50
2017-04-23T02:49:38.487Z,65.50
2017-04-23T02:50:38.522Z,65.70
2017-04-23T02:51:38.590Z,66.10
2017-04-23T02:52:38.617Z,65.50
2017-04-23T02:53:39.351Z,65.60
2017-04-23T02:54:40.146Z,65.50
2017-04-23T02:55:40.303Z,65.20
2017-04-23T02:56:40.378Z,65.40
2017-04-23T02:57:40.408Z,65.20
2017-04-23T02:58:40.455Z,65.20
2017-04-23T02:59:40.910Z,65.10
2017-04-23T03:00:41.008Z,64.80
2017-04-23T03:01:41.072Z,65.00
2017-04-23T03:02:41.132Z,65.00
2017-04-23T03:03:41.152Z,65.40
2017-04-23T03:04:42.383Z,65.60
2017-04-23T03:05:43.222Z,65.40
2017-04-23T03:06:43.274Z,65.30
2017-04-23T03:07:44.198Z,65.20
2017-04-23T03:08:44.240Z,65.50
2017-04-23T03:09:45.582Z,65.50
2017-04-23T03:10:45.873Z,65.40
2017-04-23T03:11:46.107Z,65.50
2017-04-23T03:12:46.132Z,65.70
2017-04-23T03:13:46.893Z,65.80
2017-04-23T03:14:47.269Z,66.10
2017-04-23T03:15:48.031Z,66.20
2017-04-23T03:16:48.800Z,66.20
2017-04-23T03:17:48.871Z,65.90
2017-04-23T03:18:48.902Z,65.90
2017-04-23T03:19:49.348Z,65.90
2017-04-23T03:20:50.129Z,66.10
2017-04-23T03:21:50.163Z,66.00
2017-04-23T03:22:50.256Z,66.30
2017-04-23T03:23:50.321Z,66.40
2017-04-23T03:24:50.705Z,66.30
2017-04-23T03:25:51.471Z,66.50
2017-04-23T03:26:51.622Z,66.30
2017-04-23T03:27:51.745Z,65.90
2017-04-23T03:28:51.742Z,65.70
2017-04-23T03:29:52.079Z,65.70
2017-04-23T03:30:52.189Z,66.80
2017-04-23T03:31:52.243Z,65.90
2017-04-23T03:32:52.238Z,65.50
2017-04-23T03:33:52.279Z,65.10
2017-04-23T03:34:52.602Z,65.50
2017-04-23T03:35:53.416Z,65.70
2017-04-23T03:36:53.467Z,65.60
2017-04-23T03:37:53.539Z,65.70
2017-04-23T03:38:53.586Z,65.60
2017-04-23T03:39:53.936Z,65.60
2017-04-23T03:40:54.009Z,65.30
2017-04-23T03:41:54.075Z,65.10
2017-04-23T03:42:54.092Z,65.10
2017-04-23T03:43:54.862Z,65.00
2017-04-23T03:44:55.235Z,65.10
2017-04-23T03:45:56.049Z,65.10
2017-04-23T03:46:56.096Z,65.30
2017-04-23T03:47:56.331Z,65.30
2017-04-23T03:48:56.394Z,65.10
2017-04-23T03:49:57.520Z,64.90
2017-04-23T03:50:58.319Z,64.90
2017-04-23T03:51:58.391Z,65.30
2017-04-23T03:52:58.495Z,65.20
2017-04-23T03:53:58.483Z,65.30
2017-04-23T03:54:58.890Z,65.30
2017-04-23T03:55:58.951Z,65.10
2017-04-23T03:56:59.358Z,65.20
2017-04-23T03:57:59.402Z,66.00
2017-04-23T03:58:59.496Z,64.90
2017-04-23T03:59:59.939Z,65.30
2017-04-23T04:01:00.058Z,65.80
2017-04-23T04:02:00.099Z,65.60
2017-04-23T04:03:00.288Z,66.30
2017-04-23T04:04:00.334Z,67.40
2017-04-23T04:05:00.675Z,68.60
2017-04-23T04:06:00.706Z,68.20
2017-04-23T04:07:01.479Z,67.80
2017-04-23T04:08:01.773Z,68.30
2017-04-23T04:09:01.810Z,68.90
2017-04-23T04:10:02.167Z,69.50
2017-04-23T04:11:02.191Z,68.90
2017-04-23T04:12:02.312Z,69.60
2017-04-23T04:13:06.284Z,69.60
2017-04-23T04:14:07.143Z,69.90
2017-04-23T04:15:07.612Z,68.70
2017-04-23T04:16:08.389Z,70.20
2017-04-23T04:17:08.621Z,69.50
2017-04-23T04:18:08.644Z,69.80
2017-04-23T04:19:08.702Z,69.40
2017-04-23T04:20:09.097Z,69.80
2017-04-23T04:21:09.157Z,69.50
2017-04-23T04:22:09.204Z,69.10
2017-04-23T04:23:09.247Z,69.20
2017-04-23T04:24:10.910Z,69.70
2017-04-23T04:25:11.246Z,69.80
2017-04-23T04:26:11.293Z,69.70
2017-04-23T04:27:11.306Z,69.20
2017-04-23T04:28:11.334Z,69.00
2017-04-23T04:29:11.474Z,69.50
2017-04-23T04:30:11.895Z,69.50
2017-04-23T04:31:11.922Z,68.60
2017-04-23T04:32:12.722Z,68.70
2017-04-23T04:33:12.743Z,68.40
2017-04-23T04:34:13.507Z,69.10
2017-04-23T04:35:13.979Z,69.20
2017-04-23T04:36:14.828Z,69.20
2017-04-23T04:37:15.007Z,69.40
2017-04-23T04:38:15.231Z,69.10
2017-04-23T04:39:16.037Z,69.40
2017-04-23T04:40:16.485Z,67.90
2017-04-23T04:41:17.242Z,67.80
2017-04-23T04:42:17.316Z,68.10
2017-04-23T04:43:18.165Z,67.40
2017-04-23T04:44:18.213Z,67.60
2017-04-23T04:45:18.552Z,67.00
2017-04-23T04:46:19.311Z,67.40
2017-04-23T04:47:19.508Z,68.00
2017-04-23T04:48:19.528Z,68.20
2017-04-23T04:49:19.552Z,68.10
2017-04-23T04:50:19.910Z,68.20
2017-04-23T04:51:20.639Z,68.80
2017-04-23T04:52:20.632Z,68.70
2017-04-23T04:53:20.686Z,68.40
2017-04-23T04:54:20.712Z,68.20
2017-04-23T04:55:21.075Z,67.70
2017-04-23T04:56:21.828Z,68.80
2017-04-23T04:57:21.834Z,68.50
2017-04-23T04:58:21.885Z,68.60
2017-04-23T04:59:22.762Z,68.50
2017-04-23T05:00:23.299Z,67.90
2017-04-23T05:01:23.350Z,68.00
2017-04-23T05:02:23.483Z,67.20
2017-04-23T05:03:24.259Z,67.50
2017-04-23T05:04:24.274Z,67.90
2017-04-23T05:05:24.651Z,67.10
2017-04-23T05:06:24.746Z,66.90
2017-04-23T05:07:24.791Z,66.80
2017-04-23T05:08:24.829Z,66.30
2017-04-23T05:09:24.845Z,66.20
2017-04-23T05:10:25.222Z,66.10
2017-04-23T05:11:25.235Z,67.00
2017-04-23T05:12:26.099Z,67.00
2017-04-23T05:13:27.031Z,66.90
2017-04-23T05:14:27.863Z,66.70
2017-04-23T05:15:28.170Z,66.70
2017-04-23T05:16:28.991Z,67.40
2017-04-23T05:17:29.913Z,65.60
2017-04-23T05:18:29.919Z,66.10
2017-04-23T05:19:30.133Z,66.00
2017-04-23T05:20:30.262Z,66.40
2017-04-23T05:21:30.273Z,67.00
2017-04-23T05:22:30.295Z,67.30
2017-04-23T05:23:30.316Z,67.10
2017-04-23T05:24:30.349Z,67.00
2017-04-23T05:25:30.375Z,67.30
2017-04-23T05:26:30.516Z,67.00
2017-04-23T05:27:30.678Z,66.80
2017-04-23T05:28:30.700Z,66.90
2017-04-23T05:29:30.702Z,67.30
2017-04-23T05:30:30.750Z,66.60
2017-04-23T05:31:31.558Z,67.50
2017-04-23T05:32:32.391Z,67.20
2017-04-23T05:33:32.515Z,67.00
2017-04-23T05:34:32.577Z,66.70
2017-04-23T05:35:32.602Z,66.60
2017-04-23T05:36:33.486Z,66.90
2017-04-23T05:37:33.749Z,67.00
2017-04-23T05:38:34.477Z,67.20
2017-04-23T05:39:34.480Z,66.90
2017-04-23T05:40:34.534Z,66.90
2017-04-23T05:41:34.606Z,66.80
2017-04-23T05:42:34.708Z,66.70
2017-04-23T05:43:34.824Z,66.70
2017-04-23T05:44:34.848Z,66.20
2017-04-23T05:45:34.923Z,65.00
2017-04-23T05:46:35.048Z,65.10
2017-04-23T05:47:35.148Z,65.20
2017-04-23T05:48:35.570Z,65.30
2017-04-23T05:49:35.682Z,65.40
2017-04-23T05:50:36.131Z,65.80
2017-04-23T05:51:36.187Z,65.90
2017-04-23T05:52:36.187Z,65.70
2017-04-23T05:53:36.971Z,65.60
2017-04-23T05:54:37.127Z,66.30
2017-04-23T05:55:37.882Z,66.60
2017-04-23T05:56:37.944Z,66.40
2017-04-23T05:57:38.826Z,65.90
2017-04-23T05:58:38.952Z,65.90
2017-04-23T05:59:38.967Z,66.70
2017-04-23T06:00:38.958Z,66.80
2017-04-23T06:01:39.079Z,67.00
2017-04-23T06:02:39.168Z,66.70
2017-04-23T06:03:40.083Z,66.80
2017-04-23T06:04:40.091Z,66.80
2017-04-23T06:05:40.161Z,67.70
2017-04-23T06:06:40.225Z,67.90
2017-04-23T06:07:40.300Z,67.80
2017-04-23T06:08:40.390Z,68.60
2017-04-23T06:09:41.213Z,68.70
2017-04-23T06:10:41.246Z,69.60
2017-04-23T06:11:41.262Z,69.30
2017-04-23T06:12:42.055Z,69.10
2017-04-23T06:13:42.091Z,70.00
2017-04-23T06:14:42.164Z,68.70
2017-04-23T06:15:43.292Z,67.30
2017-04-23T06:16:43.347Z,67.80
2017-04-23T06:17:43.391Z,67.30
2017-04-23T06:18:43.443Z,68.20
2017-04-23T06:19:43.482Z,68.10
2017-04-23T06:20:43.794Z,67.80
2017-04-23T06:21:43.823Z,68.20
2017-04-23T06:22:43.988Z,67.90
2017-04-23T06:23:44.088Z,68.10
2017-04-23T06:24:44.158Z,68.60
2017-04-23T06:25:44.477Z,68.30
2017-04-23T06:26:44.639Z,68.50
2017-04-23T06:27:44.937Z,67.10
2017-04-23T06:28:44.963Z,66.80
2017-04-23T06:29:45.729Z,67.10
2017-04-23T06:30:46.193Z,67.10
2017-04-23T06:31:46.212Z,67.20
2017-04-23T06:32:46.388Z,68.00
2017-04-23T06:33:47.246Z,68.20
2017-04-23T06:34:47.431Z,68.70
2017-04-23T06:35:47.812Z,69.20
2017-04-23T06:36:47.855Z,68.50
2017-04-23T06:37:48.039Z,69.10
2017-04-23T06:38:48.177Z,69.50
2017-04-23T06:39:48.238Z,67.50
2017-04-23T06:40:48.571Z,66.30
2017-04-23T06:41:48.683Z,66.40
2017-04-23T06:42:49.518Z,67.00
2017-04-23T06:43:50.540Z,67.20
2017-04-23T06:44:51.304Z,67.60
2017-04-23T06:45:52.112Z,67.70
2017-04-23T06:46:52.166Z,68.30
2017-04-23T06:47:52.258Z,68.50
2017-04-23T06:48:52.383Z,68.30
2017-04-23T06:49:53.211Z,68.60
2017-04-23T06:50:53.658Z,67.70
2017-04-23T06:51:54.407Z,68.10
2017-04-23T06:52:54.455Z,67.70
2017-04-23T06:53:54.566Z,67.60
2017-04-23T06:54:54.693Z,65.50
2017-04-23T06:55:55.196Z,66.20
2017-04-23T06:56:55.257Z,65.90
2017-04-23T06:57:55.272Z,64.80
2017-04-23T06:58:55.435Z,65.70
2017-04-23T06:59:55.556Z,64.80
2017-04-23T07:00:55.911Z,63.70
2017-04-23T07:01:56.008Z,64.10
2017-04-23T07:02:56.049Z,63.70
2017-04-23T07:03:56.167Z,63.50
2017-04-23T07:04:56.177Z,63.20
2017-04-23T07:05:56.830Z,61.50
2017-04-23T07:06:56.958Z,59.50
2017-04-23T07:07:57.031Z,59.40
2017-04-23T07:08:57.198Z,60.20
2017-04-23T07:09:58.801Z,60.20
2017-04-23T07:11:00.872Z,58.20
2017-04-23T07:12:00.933Z,57.70
2017-04-23T07:13:01.047Z,57.80
2017-04-23T07:14:01.220Z,58.20
2017-04-23T07:15:01.245Z,59.20
2017-04-23T07:16:01.919Z,60.30
2017-04-23T07:17:01.986Z,59.60
2017-04-23T07:18:02.052Z,59.80
2017-04-23T07:19:02.353Z,61.00
2017-04-23T07:20:02.434Z,61.30
2017-04-23T07:21:03.666Z,62.90
2017-04-23T07:22:03.770Z,62.00
2017-04-23T07:23:03.796Z,62.40
2017-04-23T07:24:03.967Z,62.80
2017-04-23T07:25:04.167Z,63.90
2017-04-23T07:26:04.490Z,62.50
2017-04-23T07:27:04.547Z,62.50
2017-04-23T07:28:05.360Z,64.00
2017-04-23T07:29:06.272Z,64.30
2017-04-23T07:30:06.403Z,65.40
2017-04-23T07:31:07.186Z,65.00
2017-04-23T07:32:07.215Z,64.40
2017-04-23T07:33:08.592Z,63.40
2017-04-23T07:34:08.682Z,62.10
2017-04-23T07:35:08.748Z,61.70
2017-04-23T07:36:08.798Z,59.50
2017-04-23T07:37:09.611Z,60.60
2017-04-23T07:38:10.441Z,60.50
2017-04-23T07:39:11.064Z,59.80
2017-04-23T07:40:11.165Z,59.90
2017-04-23T07:41:11.260Z,58.90
2017-04-23T07:42:11.313Z,59.50
2017-04-23T07:43:11.299Z,60.60
2017-04-23T07:44:11.426Z,59.80
2017-04-23T07:45:11.442Z,59.40
2017-04-23T07:46:11.588Z,59.70
2017-04-23T07:47:31.355Z,58.20
2017-04-23T07:48:34.510Z,58.90
2017-04-23T07:49:36.356Z,58.00
2017-04-23T07:50:38.338Z,57.90
2017-04-23T07:51:38.397Z,57.60
2017-04-23T07:52:38.532Z,57.40
2017-04-23T07:53:38.627Z,57.60
2017-04-23T07:54:38.713Z,57.30
2017-04-23T07:55:40.026Z,56.80
2017-04-23T07:56:40.091Z,57.20
2017-04-23T07:57:40.746Z,57.30
2017-04-23T07:58:42.280Z,57.10
2017-04-23T07:59:42.530Z,56.10
2017-04-23T08:00:44.266Z,55.60
2017-04-23T08:01:45.869Z,56.00
2017-04-23T08:02:46.187Z,54.80
2017-04-23T08:03:46.272Z,54.60
2017-04-23T08:04:46.354Z,55.00
2017-04-23T08:05:46.500Z,55.10
2017-04-23T08:06:48.194Z,54.90
2017-04-23T08:07:48.243Z,55.20
2017-04-23T08:08:48.275Z,54.40
2017-04-23T08:09:48.397Z,54.30
2017-04-23T08:10:48.537Z,53.40
2017-04-23T08:11:49.743Z,53.90
2017-04-23T08:12:50.023Z,54.40
2017-04-23T08:13:50.458Z,53.90
2017-04-23T08:14:50.495Z,51.50
2017-04-23T08:15:50.590Z,51.60
2017-04-23T08:16:50.660Z,51.90
2017-04-23T08:17:51.767Z,52.30
2017-04-23T08:18:52.587Z,53.30
2017-04-23T08:19:53.461Z,53.20
2017-04-23T08:20:54.395Z,52.40
2017-04-23T08:21:54.427Z,51.50
2017-04-23T08:22:54.552Z,49.90
2017-04-23T08:23:54.644Z,51.70
2017-04-23T08:24:54.717Z,51.20
2017-04-23T08:25:54.771Z,50.10
2017-04-23T08:26:55.703Z,51.30
2017-04-23T08:27:56.779Z,51.80
2017-04-23T08:28:57.005Z,52.40
2017-04-23T08:29:57.163Z,52.20
2017-04-23T08:30:57.961Z,52.40
2017-04-23T08:31:58.154Z,52.20
2017-04-23T08:32:58.346Z,51.90
2017-04-23T08:33:58.425Z,52.30
2017-04-23T08:34:58.585Z,52.40
2017-04-23T08:35:58.667Z,52.60
2017-04-23T08:36:58.785Z,53.20
2017-04-23T08:37:59.593Z,54.40
2017-04-23T08:38:59.643Z,53.80
2017-04-23T08:40:00.723Z,53.40
2017-04-23T08:41:00.851Z,51.70
2017-04-23T08:42:00.940Z,51.80
2017-04-23T08:43:01.064Z,51.80
2017-04-23T08:44:01.902Z,51.20
2017-04-23T08:45:01.949Z,51.40
2017-04-23T08:46:02.083Z,52.60
2017-04-23T08:47:02.174Z,53.00
2017-04-23T08:48:02.318Z,53.70
2017-04-23T08:49:02.538Z,53.90
2017-04-23T08:50:02.572Z,53.10
2017-04-23T08:51:02.886Z,53.60
2017-04-23T08:52:03.048Z,53.30
2017-04-23T08:53:03.097Z,53.30
2017-04-23T08:54:03.602Z,53.20
2017-04-23T08:55:04.683Z,53.20
2017-04-23T08:56:04.835Z,51.90
2017-04-23T08:57:11.274Z,51.80
2017-04-23T08:58:11.389Z,52.10
2017-04-23T08:59:11.518Z,53.60
2017-04-23T09:00:14.923Z,53.90
2017-04-23T09:01:15.824Z,54.70
2017-04-23T09:02:16.802Z,55.30
2017-04-23T09:03:34.185Z,55.80
2017-04-23T09:04:36.254Z,56.40
2017-04-23T09:05:36.345Z,55.90
2017-04-23T09:06:36.463Z,57.00
2017-04-23T09:07:36.538Z,57.50
2017-04-23T09:08:36.701Z,57.90
2017-04-23T09:09:36.756Z,58.80
2017-04-23T09:10:36.874Z,58.10
2017-04-23T09:11:36.905Z,59.10
2017-04-23T09:12:37.044Z,58.80
2017-04-23T09:13:37.154Z,58.80
2017-04-23T09:14:37.968Z,58.40
2017-04-23T09:15:37.969Z,57.50
2017-04-23T09:16:38.062Z,57.10
2017-04-23T09:17:38.135Z,56.40
2017-04-23T09:18:38.220Z,57.30
2017-04-23T09:19:39.002Z,57.10
2017-04-23T09:20:39.036Z,56.90
2017-04-23T09:21:39.107Z,56.70
2017-04-23T09:22:39.148Z,57.70
2017-04-23T09:23:39.203Z,56.20
2017-04-23T09:24:40.057Z,55.20
2017-04-23T09:25:40.167Z,56.00
2017-04-23T09:26:40.189Z,55.60
2017-04-23T09:27:40.281Z,55.10
2017-04-23T09:28:40.366Z,52.10
2017-04-23T09:29:40.442Z,50.70
2017-04-23T09:30:41.355Z,49.50
2017-04-23T09:31:41.439Z,48.50
2017-04-23T09:32:41.454Z,48.30
2017-04-23T09:33:41.626Z,47.80
2017-04-23T09:34:41.711Z,48.60
2017-04-23T09:35:41.967Z,48.00
2017-04-23T09:36:42.087Z,47.10
2017-04-23T09:37:42.132Z,46.70
2017-04-23T09:38:42.283Z,45.50
2017-04-23T09:39:42.297Z,44.70
2017-04-23T09:40:42.319Z,45.70
2017-04-23T09:41:48.914Z,46.00
2017-04-23T09:42:49.005Z,45.80
2017-04-23T09:43:49.037Z,43.60
2017-04-23T09:44:49.104Z,42.70
2017-04-23T09:45:49.196Z,42.30
2017-04-23T09:46:49.292Z,42.40
2017-04-23T09:47:49.447Z,42.20
2017-04-23T09:48:49.518Z,42.90
2017-04-23T09:49:49.631Z,42.80
2017-04-23T09:50:49.739Z,42.90
2017-04-23T09:51:49.822Z,43.00
2017-04-23T09:52:49.917Z,40.50
2017-04-23T09:53:49.972Z,40.20
2017-04-23T09:54:50.009Z,40.70
2017-04-23T09:55:50.276Z,42.10
2017-04-23T09:56:50.370Z,42.80
2017-04-23T09:57:50.469Z,42.80
2017-04-23T09:58:50.528Z,42.80
2017-04-23T09:59:50.559Z,43.90
2017-04-23T10:00:50.715Z,42.70
2017-04-23T10:01:51.594Z,42.90
2017-04-23T10:02:51.668Z,42.30
2017-04-23T10:03:51.768Z,42.20
2017-04-23T10:04:51.812Z,40.90
2017-04-23T10:05:52.074Z,42.50
2017-04-23T10:06:52.131Z,41.00
2017-04-23T10:07:53.131Z,40.70
2017-04-23T10:08:53.249Z,40.30
2017-04-23T10:09:53.435Z,38.70
2017-04-23T10:10:53.486Z,40.50
2017-04-23T10:11:53.640Z,40.20
2017-04-23T10:12:53.829Z,40.70
2017-04-23T10:13:54.804Z,40.00
2017-04-23T10:14:54.945Z,40.70
2017-04-23T10:15:55.227Z,40.70
2017-04-23T10:16:55.364Z,40.40
2017-04-23T10:17:55.525Z,41.90
2017-04-23T10:18:55.583Z,42.20
2017-04-23T10:19:55.714Z,41.90
2017-04-23T10:20:55.814Z,42.00
2017-04-23T10:21:56.687Z,42.50
2017-04-23T10:22:57.565Z,42.40
2017-04-23T10:23:57.765Z,42.30
2017-04-23T10:24:57.883Z,42.50
2017-04-23T10:25:58.008Z,43.20
2017-04-23T10:26:58.081Z,43.10
2017-04-23T10:27:58.168Z,41.90
2017-04-23T10:28:58.239Z,42.40
2017-04-23T10:29:58.477Z,41.70
2017-04-23T10:30:58.583Z,40.10
2017-04-23T10:31:58.689Z,40.00
2017-04-23T10:32:58.940Z,40.50
2017-04-23T10:33:59.081Z,40.00
2017-04-23T10:34:59.900Z,40.60
2017-04-23T10:35:59.972Z,40.40
2017-04-23T10:37:00.069Z,40.30
2017-04-23T10:38:00.259Z,37.10
2017-04-23T10:39:00.430Z,37.00
2017-04-23T10:40:00.526Z,37.10
2017-04-23T10:41:00.603Z,36.60
2017-04-23T10:42:01.271Z,36.40
2017-04-23T10:43:01.399Z,37.30
2017-04-23T10:44:01.544Z,37.80
2017-04-23T10:45:01.642Z,37.70
2017-04-23T10:46:01.723Z,38.10
2017-04-23T10:47:01.888Z,38.20
2017-04-23T10:48:02.021Z,38.50
2017-04-23T10:49:02.100Z,38.50
2017-04-23T10:50:02.293Z,38.50
2017-04-23T10:51:03.192Z,38.40
2017-04-23T10:52:03.244Z,39.00
2017-04-23T10:53:03.442Z,37.80
2017-04-23T10:54:03.546Z,37.90
2017-04-23T10:55:03.701Z,38.20
2017-04-23T10:56:03.838Z,38.40
2017-04-23T10:57:03.924Z,38.50
2017-04-23T10:58:04.060Z,37.60
2017-04-23T10:59:04.251Z,37.60
2017-04-23T11:00:04.403Z,39.70
2017-04-23T11:01:05.283Z,40.00
2017-04-23T11:02:05.399Z,39.80
2017-04-23T11:03:05.563Z,39.10
2017-04-23T11:04:05.637Z,39.50
2017-04-23T11:05:05.787Z,39.30
2017-04-23T11:06:06.038Z,40.00
2017-04-23T11:07:07.039Z,39.50
2017-04-23T11:08:07.123Z,39.20
2017-04-23T11:09:07.247Z,39.50
2017-04-23T11:10:07.290Z,40.10
2017-04-23T11:11:07.414Z,40.40
2017-04-23T11:12:07.526Z,38.80
2017-04-23T11:13:08.509Z,37.30
2017-04-23T11:14:08.803Z,37.60
2017-04-23T11:15:08.975Z,37.20
2017-04-23T11:16:09.200Z,36.50
2017-04-23T11:17:09.283Z,36.60
2017-04-23T11:18:09.371Z,36.50
2017-04-23T11:19:09.445Z,34.80
2017-04-23T11:20:10.277Z,34.50
2017-04-23T11:21:13.246Z,35.10
2017-04-23T11:22:13.376Z,35.20
2017-04-23T11:23:13.526Z,34.60
2017-04-23T11:24:13.661Z,35.70
2017-04-23T11:25:13.770Z,36.00
2017-04-23T11:26:13.864Z,35.60
2017-04-23T11:27:13.962Z,36.30
2017-04-23T11:28:14.784Z,36.80
2017-04-23T11:29:15.591Z,37.90
2017-04-23T11:30:15.719Z,40.10
2017-04-23T11:31:15.840Z,41.70
2017-04-23T11:32:16.006Z,42.60
2017-04-23T11:33:16.057Z,43.40
2017-04-23T11:34:16.059Z,44.30
2017-04-23T11:35:16.559Z,46.10
2017-04-23T11:36:16.700Z,46.20
2017-04-23T11:37:16.907Z,46.30
2017-04-23T11:38:16.959Z,47.10
2017-04-23T11:39:17.115Z,45.70
2017-04-23T11:40:17.187Z,45.50
2017-04-23T11:41:17.239Z,45.00
2017-04-23T11:42:17.271Z,45.60
2017-04-23T11:43:17.328Z,45.60
2017-04-23T11:44:17.422Z,45.70
2017-04-23T11:45:17.544Z,46.00
2017-04-23T11:47:18.035Z,44.80
2017-04-23T11:48:18.108Z,45.00
2017-04-23T11:49:18.203Z,44.30
2017-04-23T11:50:18.255Z,43.80
2017-04-23T11:51:18.365Z,44.00
2017-04-23T11:52:18.422Z,44.00
2017-04-23T11:53:19.286Z,43.60
2017-04-23T11:54:20.068Z,43.90
2017-04-23T11:55:20.887Z,44.20
2017-04-23T11:56:20.996Z,44.80
2017-04-23T11:58:21.521Z,45.60
2017-04-23T11:59:21.580Z,44.90
2017-04-23T12:00:21.682Z,45.20
2017-04-23T12:01:21.797Z,45.50
2017-04-23T12:02:22.660Z,45.70
2017-04-23T12:03:22.687Z,45.30
2017-04-23T12:04:23.446Z,45.40
2017-04-23T12:05:23.581Z,44.80
2017-04-23T12:06:23.703Z,44.90
2017-04-23T12:07:24.069Z,45.20
2017-04-23T12:08:24.150Z,45.10
2017-04-23T12:09:25.002Z,43.50
2017-04-23T12:10:25.104Z,42.60
2017-04-23T12:11:25.404Z,43.30
2017-04-23T12:12:26.215Z,43.20
2017-04-23T12:13:26.319Z,42.10
2017-04-23T12:14:26.472Z,42.20
2017-04-23T12:15:26.544Z,43.40
2017-04-23T12:16:26.666Z,41.80
2017-04-23T12:17:26.884Z,41.20
2017-04-23T12:18:29.531Z,40.90
2017-04-23T12:20:09.780Z,40.60
2017-04-23T12:21:11.864Z,37.70
2017-04-23T12:23:16.304Z,37.80
2017-04-23T12:24:16.376Z,37.70
2017-04-23T12:25:17.479Z,35.60
2017-04-23T12:26:53.953Z,35.20
2017-04-23T12:27:57.255Z,33.80
2017-04-23T12:28:59.574Z,33.20
2017-04-23T12:30:00.845Z,33.40
2017-04-23T12:31:00.953Z,32.90
2017-04-23T12:32:01.957Z,33.10
2017-04-23T12:33:02.078Z,33.50
2017-04-23T12:34:02.205Z,33.80
2017-04-23T12:35:02.372Z,34.40
2017-04-23T12:36:02.584Z,34.30
2017-04-23T12:37:02.754Z,34.90
2017-04-23T12:38:12.307Z,35.10
2017-04-23T12:39:26.719Z,34.60
2017-04-23T12:40:50.630Z,35.80
2017-04-23T12:41:52.049Z,35.10
2017-04-23T12:42:55.371Z,35.90
2017-04-23T12:44:46.481Z,36.40
2017-04-23T12:46:09.970Z,36.70
2017-04-23T12:47:10.283Z,36.70
2017-04-23T12:48:10.562Z,36.70
2017-04-23T12:49:10.705Z,36.00
2017-04-23T12:50:10.791Z,36.50
2017-04-23T12:51:11.064Z,36.40
2017-04-23T12:52:11.185Z,36.10
2017-04-23T12:53:11.291Z,36.50
2017-04-23T12:54:11.489Z,36.20
2017-04-23T12:55:11.625Z,36.50
2017-04-23T12:56:11.819Z,35.70
2017-04-23T12:57:11.950Z,35.80
2017-04-23T12:58:12.070Z,35.60
2017-04-23T12:59:12.754Z,35.30
2017-04-23T13:00:12.919Z,35.30
2017-04-23T13:01:13.066Z,35.30
2017-04-23T13:02:13.220Z,35.10
2017-04-23T13:04:14.137Z,34.30
2017-04-23T13:05:14.404Z,34.70